sensor_id;sensor_type;location;lat;lon;timestamp;pressure;altitude;pressure_sealevel;temperature;humidity
46714;BME280;32445;51.376;10.874;2024-02-21T00:02:23;100030.88;;;8.48;59.46
46714;BME280;32445;51.376;10.874;2024-02-21T00:07:23;100038.56;;;8.56;59.29
46714;BME280;32445;51.376;10.874;2024-02-21T00:12:23;100030.75;;;8.59;59.09
46714;BME280;32445;51.376;10.874;2024-02-21T00:17:24;100027.25;;;8.66;59.13
46714;BME280;32445;51.376;10.874;2024-02-21T00:22:26;100021.22;;;8.66;58.92
46714;BME280;32445;51.376;10.874;2024-02-21T00:27:29;100011.81;;;8.59;58.88
46714;BME280;32445;51.376;10.874;2024-02-21T00:32:29;100002.28;;;8.59;59.07
46714;BME280;32445;51.376;10.874;2024-02-21T00:37:31;99989.34;;;8.59;59.01
46714;BME280;32445;51.376;10.874;2024-02-21T00:42:31;99988.59;;;8.49;59.12
46714;BME280;32445;51.376;10.874;2024-02-21T00:47:31;99986.03;;;8.46;59.11
46714;BME280;32445;51.376;10.874;2024-02-21T00:52:32;99989.50;;;8.44;59.13
46714;BME280;32445;51.376;10.874;2024-02-21T00:57:32;99988.75;;;8.32;59.36
46714;BME280;32445;51.376;10.874;2024-02-21T01:02:32;99980.06;;;8.38;59.42
46714;BME280;32445;51.376;10.874;2024-02-21T01:07:33;99971.44;;;8.38;59.29
46714;BME280;32445;51.376;10.874;2024-02-21T01:12:33;99968.03;;;8.34;59.32
46714;BME280;32445;51.376;10.874;2024-02-21T01:17:33;99983.59;;;8.31;59.33
46714;BME280;32445;51.376;10.874;2024-02-21T01:22:34;99992.22;;;8.30;59.43
46714;BME280;32445;51.376;10.874;2024-02-21T01:27:34;99968.03;;;8.34;59.46
46714;BME280;32445;51.376;10.874;2024-02-21T01:32:35;99957.63;;;8.40;59.10
46714;BME280;32445;51.376;10.874;2024-02-21T01:37:35;99957.56;;;8.43;59.24
46714;BME280;32445;51.376;10.874;2024-02-21T01:42:39;99941.22;;;8.44;59.06
46714;BME280;32445;51.376;10.874;2024-02-21T01:47:42;99941.22;;;8.43;59.08
46714;BME280;32445;51.376;10.874;2024-02-21T01:52:46;99930.13;;;8.31;59.42
46714;BME280;32445;51.376;10.874;2024-02-21T01:57:46;99925.88;;;8.24;59.75
46714;BME280;32445;51.376;10.874;2024-02-21T02:02:47;99925.00;;;8.25;59.57
46714;BME280;32445;51.376;10.874;2024-02-21T02:07:47;99918.19;;;8.15;59.89
46714;BME280;32445;51.376;10.874;2024-02-21T02:12:47;99925.97;;;8.12;59.92
46714;BME280;32445;51.376;10.874;2024-02-21T02:17:48;99921.69;;;8.08;60.18
46714;BME280;32445;51.376;10.874;2024-02-21T02:22:48;99909.66;;;8.04;60.53
46714;BME280;32445;51.376;10.874;2024-02-21T02:27:49;99910.56;;;8.03;60.48
46714;BME280;32445;51.376;10.874;2024-02-21T02:32:49;99897.66;;;8.01;60.48
46714;BME280;32445;51.376;10.874;2024-02-21T02:37:50;99892.38;;;8.12;60.10
46714;BME280;32445;51.376;10.874;2024-02-21T02:42:50;99902.75;;;8.07;60.20
46714;BME280;32445;51.376;10.874;2024-02-21T02:47:51;99897.59;;;8.07;60.45
46714;BME280;32445;51.376;10.874;2024-02-21T02:52:53;99898.41;;;8.09;60.15
46714;BME280;32445;51.376;10.874;2024-02-21T02:57:54;99888.91;;;8.13;60.29
46714;BME280;32445;51.376;10.874;2024-02-21T03:02:54;99893.25;;;8.11;60.39
46714;BME280;32445;51.376;10.874;2024-02-21T03:07:55;99887.13;;;8.20;60.25
46714;BME280;32445;51.376;10.874;2024-02-21T03:12:55;99891.34;;;8.28;59.87
46714;BME280;32445;51.376;10.874;2024-02-21T03:17:56;99876.66;;;8.30;59.81
46714;BME280;32445;51.376;10.874;2024-02-21T03:22:56;99872.38;;;8.28;59.79
46714;BME280;32445;51.376;10.874;2024-02-21T03:27:56;99868.91;;;8.30;59.96
46714;BME280;32445;51.376;10.874;2024-02-21T03:32:57;99870.59;;;8.35;59.77
46714;BME280;32445;51.376;10.874;2024-02-21T03:37:57;99858.53;;;8.32;59.87
46714;BME280;32445;51.376;10.874;2024-02-21T03:42:57;99852.56;;;8.27;60.04
46714;BME280;32445;51.376;10.874;2024-02-21T03:47:58;99839.63;;;8.28;60.07
46714;BME280;32445;51.376;10.874;2024-02-21T03:52:59;99842.22;;;8.28;59.95
46714;BME280;32445;51.376;10.874;2024-02-21T03:58:00;99831.72;;;8.39;59.72
46714;BME280;32445;51.376;10.874;2024-02-21T04:03:00;99832.53;;;8.46;59.55
46714;BME280;32445;51.376;10.874;2024-02-21T04:08:04;99838.56;;;8.43;59.65
46714;BME280;32445;51.376;10.874;2024-02-21T04:13:06;99841.16;;;8.43;59.59
46714;BME280;32445;51.376;10.874;2024-02-21T04:18:06;99835.25;;;8.32;59.92
46714;BME280;32445;51.376;10.874;2024-02-21T04:23:07;99823.22;;;8.31;60.22
46714;BME280;32445;51.376;10.874;2024-02-21T04:28:07;99819.75;;;8.32;60.10
46714;BME280;32445;51.376;10.874;2024-02-21T04:33:07;99805.16;;;8.25;60.28
46714;BME280;32445;51.376;10.874;2024-02-21T04:38:08;99809.50;;;8.23;60.50
46714;BME280;32445;51.376;10.874;2024-02-21T04:43:08;99799.16;;;8.23;60.21
46714;BME280;32445;51.376;10.874;2024-02-21T04:48:09;99789.66;;;8.25;60.39
46714;BME280;32445;51.376;10.874;2024-02-21T04:53:09;99783.56;;;8.30;60.43
46714;BME280;32445;51.376;10.874;2024-02-21T04:58:09;99770.53;;;8.38;60.08
46714;BME280;32445;51.376;10.874;2024-02-21T05:03:10;99757.53;;;8.44;59.70
46714;BME280;32445;51.376;10.874;2024-02-21T05:08:11;99759.97;;;8.57;59.61
46714;BME280;32445;51.376;10.874;2024-02-21T05:13:11;99761.66;;;8.58;59.46
46714;BME280;32445;51.376;10.874;2024-02-21T05:18:12;99762.59;;;8.52;59.77
46714;BME280;32445;51.376;10.874;2024-02-21T05:23:12;99771.25;;;8.53;59.78
46714;BME280;32445;51.376;10.874;2024-02-21T05:28:12;99767.91;;;8.41;60.04
46714;BME280;32445;51.376;10.874;2024-02-21T05:33:28;99773.06;;;8.43;60.08
46714;BME280;32445;51.376;10.874;2024-02-21T05:38:28;99759.28;;;8.41;60.11
46714;BME280;32445;51.376;10.874;2024-02-21T05:43:28;99758.38;;;8.43;60.07
46714;BME280;32445;51.376;10.874;2024-02-21T05:48:29;99752.38;;;8.41;60.04
46714;BME280;32445;51.376;10.874;2024-02-21T05:53:29;99741.28;;;8.33;60.38
46714;BME280;32445;51.376;10.874;2024-02-21T05:58:30;99742.19;;;8.29;60.31
46714;BME280;32445;51.376;10.874;2024-02-21T06:03:31;99746.59;;;8.21;60.86
46714;BME280;32445;51.376;10.874;2024-02-21T06:08:31;99750.88;;;8.23;60.59
46714;BME280;32445;51.376;10.874;2024-02-21T06:13:32;99775.03;;;8.24;60.66
46714;BME280;32445;51.376;10.874;2024-02-21T06:18:32;99776.75;;;8.23;60.99
46714;BME280;32445;51.376;10.874;2024-02-21T06:23:33;99786.22;;;8.24;60.63
46714;BME280;32445;51.376;10.874;2024-02-21T06:28:33;99797.44;;;8.22;60.63
46714;BME280;32445;51.376;10.874;2024-02-21T06:33:33;99797.44;;;8.22;60.78
46714;BME280;32445;51.376;10.874;2024-02-21T06:38:34;99780.22;;;8.21;60.98
46714;BME280;32445;51.376;10.874;2024-02-21T06:43:34;99787.06;;;8.25;60.66
46714;BME280;32445;51.376;10.874;2024-02-21T06:48:34;99782.81;;;8.19;60.69
46714;BME280;32445;51.376;10.874;2024-02-21T06:53:35;99758.69;;;8.19;60.67
46714;BME280;32445;51.376;10.874;2024-02-21T06:58:35;99746.53;;;8.27;61.01
46714;BME280;32445;51.376;10.874;2024-02-21T07:03:38;99742.16;;;8.30;60.55
46714;BME280;32445;51.376;10.874;2024-02-21T07:08:38;99737.91;;;8.26;60.64
46714;BME280;32445;51.376;10.874;2024-02-21T07:13:39;99739.63;;;8.27;60.53
46714;BME280;32445;51.376;10.874;2024-02-21T07:18:40;99736.13;;;8.31;60.44
46714;BME280;32445;51.376;10.874;2024-02-21T07:23:41;99747.28;;;8.34;60.44
46714;BME280;32445;51.376;10.874;2024-02-21T07:28:42;99750.69;;;8.39;60.35
46714;BME280;32445;51.376;10.874;2024-02-21T07:33:42;99759.25;;;8.47;60.08
46714;BME280;32445;51.376;10.874;2024-02-21T07:38:43;99760.84;;;8.56;60.08
46714;BME280;32445;51.376;10.874;2024-02-21T07:43:43;99760.00;;;8.54;60.33
46714;BME280;32445;51.376;10.874;2024-02-21T07:48:45;99766.88;;;8.55;60.01
46714;BME280;32445;51.376;10.874;2024-02-21T07:53:46;99771.31;;;8.46;60.05
46714;BME280;32445;51.376;10.874;2024-02-21T07:58:47;99778.25;;;8.44;60.14
46714;BME280;32445;51.376;10.874;2024-02-21T08:03:48;99750.56;;;8.49;60.17
46714;BME280;32445;51.376;10.874;2024-02-21T08:08:48;99748.75;;;8.56;60.02
46714;BME280;32445;51.376;10.874;2024-02-21T08:13:48;99752.16;;;8.61;59.76
46714;BME280;32445;51.376;10.874;2024-02-21T08:18:49;99740.00;;;8.65;59.77
46714;BME280;32445;51.376;10.874;2024-02-21T08:23:49;99745.78;;;8.82;59.63
46714;BME280;32445;51.376;10.874;2024-02-21T08:28:51;99744.88;;;8.85;59.31
46714;BME280;32445;51.376;10.874;2024-02-21T08:33:52;99733.59;;;8.89;59.44
46714;BME280;32445;51.376;10.874;2024-02-21T08:38:52;99731.91;;;8.90;59.30
46714;BME280;32445;51.376;10.874;2024-02-21T08:43:54;99733.56;;;8.91;59.20
46714;BME280;32445;51.376;10.874;2024-02-21T08:48:55;99725.88;;;8.88;59.23
46714;BME280;32445;51.376;10.874;2024-02-21T08:53:55;99709.53;;;8.86;59.32
46714;BME280;32445;51.376;10.874;2024-02-21T08:58:56;99710.19;;;8.95;59.29
46714;BME280;32445;51.376;10.874;2024-02-21T09:03:57;99699.75;;;9.02;59.25
46714;BME280;32445;51.376;10.874;2024-02-21T09:08:58;99683.22;;;9.10;59.02
46714;BME280;32445;51.376;10.874;2024-02-21T09:13:58;99693.38;;;9.23;59.02
46714;BME280;32445;51.376;10.874;2024-02-21T09:18:59;99694.06;;;9.31;58.94
46714;BME280;32445;51.376;10.874;2024-02-21T09:23:59;99686.19;;;9.37;58.86
46714;BME280;32445;51.376;10.874;2024-02-21T09:29:03;99690.59;;;9.32;58.58
46714;BME280;32445;51.376;10.874;2024-02-21T09:34:04;99676.63;;;9.41;58.57
46714;BME280;32445;51.376;10.874;2024-02-21T09:39:04;99687.91;;;9.37;58.52
46714;BME280;32445;51.376;10.874;2024-02-21T09:44:06;99674.09;;;9.38;58.47
46714;BME280;32445;51.376;10.874;2024-02-21T09:49:21;99679.72;;;9.60;58.59
46714;BME280;32445;51.376;10.874;2024-02-21T09:54:28;99668.31;;;9.68;58.21
46714;BME280;32445;51.376;10.874;2024-02-21T09:59:31;99668.34;;;9.67;58.25
46714;BME280;32445;51.376;10.874;2024-02-21T10:04:32;99661.31;;;9.74;58.46
46714;BME280;32445;51.376;10.874;2024-02-21T10:09:32;99657.59;;;9.85;58.09
46714;BME280;32445;51.376;10.874;2024-02-21T10:14:33;99654.03;;;9.91;58.48
46714;BME280;32445;51.376;10.874;2024-02-21T10:19:33;99649.50;;;10.01;58.29
46714;BME280;32445;51.376;10.874;2024-02-21T10:24:35;99647.56;;;10.11;58.12
46714;BME280;32445;51.376;10.874;2024-02-21T10:29:39;99638.00;;;10.13;58.12
46714;BME280;32445;51.376;10.874;2024-02-21T10:34:46;99628.47;;;10.15;58.20
46714;BME280;32445;51.376;10.874;2024-02-21T10:39:53;99622.34;;;10.17;58.23
46714;BME280;32445;51.376;10.874;2024-02-21T10:45:00;99618.84;;;10.18;57.65
46714;BME280;32445;51.376;10.874;2024-02-21T10:50:03;99611.03;;;10.21;58.05
46714;BME280;32445;51.376;10.874;2024-02-21T10:55:10;99604.13;;;10.20;58.04
46714;BME280;32445;51.376;10.874;2024-02-21T11:00:17;99593.63;;;10.25;58.39
46714;BME280;32445;51.376;10.874;2024-02-21T11:05:18;99572.81;;;10.28;58.09
46714;BME280;32445;51.376;10.874;2024-02-21T11:10:31;99559.56;;;10.41;58.33
46714;BME280;32445;51.376;10.874;2024-02-21T11:15:31;99545.00;;;10.35;58.35
46714;BME280;32445;51.376;10.874;2024-02-21T11:20:33;99545.72;;;10.40;58.53
46714;BME280;32445;51.376;10.874;2024-02-21T11:25:34;99546.56;;;10.42;58.56
46714;BME280;32445;51.376;10.874;2024-02-21T11:30:35;99550.47;;;10.59;58.55
46714;BME280;32445;51.376;10.874;2024-02-21T11:35:36;99544.31;;;10.63;58.60
46714;BME280;32445;51.376;10.874;2024-02-21T11:40:38;99534.00;;;10.60;58.51
46714;BME280;32445;51.376;10.874;2024-02-21T11:45:40;99528.81;;;10.60;58.47
46714;BME280;32445;51.376;10.874;2024-02-21T11:50:41;99522.41;;;10.38;58.12
46714;BME280;32445;51.376;10.874;2024-02-21T11:55:41;99501.69;;;10.37;58.59
46714;BME280;32445;51.376;10.874;2024-02-21T12:00:41;99487.16;;;10.30;58.93
46714;BME280;32445;51.376;10.874;2024-02-21T12:05:42;99471.19;;;10.47;58.71
46714;BME280;32445;51.376;10.874;2024-02-21T12:10:42;99471.09;;;10.50;58.54
46714;BME280;32445;51.376;10.874;2024-02-21T12:15:48;99449.66;;;10.43;58.69
46714;BME280;32445;51.376;10.874;2024-02-21T12:20:51;99441.34;;;10.63;58.55
46714;BME280;32445;51.376;10.874;2024-02-21T12:25:53;99447.16;;;10.71;58.38
46714;BME280;32445;51.376;10.874;2024-02-21T12:30:54;99452.34;;;10.71;58.48
46714;BME280;32445;51.376;10.874;2024-02-21T12:35:55;99454.22;;;10.66;58.34
46714;BME280;32445;51.376;10.874;2024-02-21T12:40:56;99446.09;;;10.46;58.44
46714;BME280;32445;51.376;10.874;2024-02-21T12:45:57;99431.78;;;10.31;58.57
46714;BME280;32445;51.376;10.874;2024-02-21T12:50:57;99407.50;;;10.33;58.48
46714;BME280;32445;51.376;10.874;2024-02-21T12:55:58;99387.50;;;10.38;58.29
46714;BME280;32445;51.376;10.874;2024-02-21T13:00:58;99388.69;;;10.58;58.54
46714;BME280;32445;51.376;10.874;2024-02-21T13:05:59;99380.44;;;10.75;58.18
46714;BME280;32445;51.376;10.874;2024-02-21T13:10:59;99369.66;;;10.89;57.70
46714;BME280;32445;51.376;10.874;2024-02-21T13:16:00;99361.31;;;10.78;56.95
46714;BME280;32445;51.376;10.874;2024-02-21T13:21:00;99360.25;;;10.85;56.92
46714;BME280;32445;51.376;10.874;2024-02-21T13:26:01;99367.16;;;10.84;56.71
46714;BME280;32445;51.376;10.874;2024-02-21T13:31:01;99353.47;;;10.79;56.21
46714;BME280;32445;51.376;10.874;2024-02-21T13:36:03;99358.72;;;10.78;56.66
46714;BME280;32445;51.376;10.874;2024-02-21T13:41:05;99359.47;;;10.81;56.53
46714;BME280;32445;51.376;10.874;2024-02-21T13:46:06;99358.50;;;10.85;56.56
46714;BME280;32445;51.376;10.874;2024-02-21T13:51:10;99349.13;;;10.80;56.17
46714;BME280;32445;51.376;10.874;2024-02-21T13:56:11;99325.56;;;10.86;56.45
46714;BME280;32445;51.376;10.874;2024-02-21T14:01:12;99303.69;;;10.95;56.60
46714;BME280;32445;51.376;10.874;2024-02-21T14:06:12;99305.00;;;11.08;56.13
46714;BME280;32445;51.376;10.874;2024-02-21T14:11:12;99283.41;;;11.06;56.24
46714;BME280;32445;51.376;10.874;2024-02-21T14:16:14;99270.88;;;11.19;56.56
46714;BME280;32445;51.376;10.874;2024-02-21T14:21:15;99263.63;;;11.29;56.42
46714;BME280;32445;51.376;10.874;2024-02-21T14:26:15;99245.88;;;11.16;56.21
46714;BME280;32445;51.376;10.874;2024-02-21T14:31:15;99244.81;;;11.22;56.56
46714;BME280;32445;51.376;10.874;2024-02-21T14:36:17;99221.28;;;11.27;56.48
46714;BME280;32445;51.376;10.874;2024-02-21T14:41:18;99221.22;;;11.28;56.16
46714;BME280;32445;51.376;10.874;2024-02-21T14:46:19;99198.63;;;11.30;56.46
46714;BME280;32445;51.376;10.874;2024-02-21T14:51:19;99204.56;;;11.34;56.27
46714;BME280;32445;51.376;10.874;2024-02-21T14:56:19;99202.75;;;11.36;56.52
46714;BME280;32445;51.376;10.874;2024-02-21T15:01:20;99198.50;;;11.33;56.39
46714;BME280;32445;51.376;10.874;2024-02-21T15:06:20;99171.16;;;11.23;56.21
46714;BME280;32445;51.376;10.874;2024-02-21T15:11:20;99166.00;;;11.21;56.53
46714;BME280;32445;51.376;10.874;2024-02-21T15:16:22;99148.06;;;11.39;56.38
46714;BME280;32445;51.376;10.874;2024-02-21T15:21:22;99136.25;;;11.30;56.32
46714;BME280;32445;51.376;10.874;2024-02-21T15:26:23;99121.13;;;11.41;56.38
46714;BME280;32445;51.376;10.874;2024-02-21T15:31:24;99097.56;;;11.46;56.25
46714;BME280;32445;51.376;10.874;2024-02-21T15:36:24;99102.34;;;11.35;56.23
46714;BME280;32445;51.376;10.874;2024-02-21T15:41:25;99088.56;;;11.07;56.04
46714;BME280;32445;51.376;10.874;2024-02-21T15:46:26;99084.28;;;11.06;56.32
46714;BME280;32445;51.376;10.874;2024-02-21T15:51:26;99066.44;;;10.96;56.33
46714;BME280;32445;51.376;10.874;2024-02-21T15:56:26;99074.19;;;10.97;56.39
46714;BME280;32445;51.376;10.874;2024-02-21T16:01:27;99067.09;;;11.02;56.28
46714;BME280;32445;51.376;10.874;2024-02-21T16:06:28;99049.44;;;10.87;56.03
46714;BME280;32445;51.376;10.874;2024-02-21T16:11:28;99035.81;;;10.80;56.51
46714;BME280;32445;51.376;10.874;2024-02-21T16:16:29;99011.81;;;10.99;56.30
46714;BME280;32445;51.376;10.874;2024-02-21T16:21:30;99000.16;;;11.11;56.03
46714;BME280;32445;51.376;10.874;2024-02-21T16:26:34;98990.28;;;11.20;55.50
46714;BME280;32445;51.376;10.874;2024-02-21T16:31:35;98978.06;;;11.22;55.74
46714;BME280;32445;51.376;10.874;2024-02-21T16:36:38;98971.09;;;11.23;55.62
46714;BME280;32445;51.376;10.874;2024-02-21T16:41:38;98956.50;;;11.20;55.68
46714;BME280;32445;51.376;10.874;2024-02-21T16:46:39;98950.56;;;11.17;55.63
46714;BME280;32445;51.376;10.874;2024-02-21T16:51:39;98943.06;;;11.09;55.64
46714;BME280;32445;51.376;10.874;2024-02-21T16:56:39;98944.19;;;11.02;55.53
46714;BME280;32445;51.376;10.874;2024-02-21T17:01:40;98935.84;;;10.94;55.71
46714;BME280;32445;51.376;10.874;2024-02-21T17:06:40;98924.03;;;10.85;55.64
46714;BME280;32445;51.376;10.874;2024-02-21T17:11:41;98920.88;;;10.77;55.77
46714;BME280;32445;51.376;10.874;2024-02-21T17:16:41;98927.19;;;10.69;55.64
46714;BME280;32445;51.376;10.874;2024-02-21T17:21:42;98916.22;;;10.61;55.83
46714;BME280;32445;51.376;10.874;2024-02-21T17:26:43;98913.91;;;10.53;55.70
46714;BME280;32445;51.376;10.874;2024-02-21T17:31:43;98908.88;;;10.49;55.87
46714;BME280;32445;51.376;10.874;2024-02-21T17:36:44;98908.13;;;10.45;55.60
46714;BME280;32445;51.376;10.874;2024-02-21T17:41:46;98903.13;;;10.41;55.65
46714;BME280;32445;51.376;10.874;2024-02-21T17:46:46;98894.56;;;10.37;55.61
46714;BME280;32445;51.376;10.874;2024-02-21T17:51:46;98892.13;;;10.32;55.61
46714;BME280;32445;51.376;10.874;2024-02-21T17:56:47;98894.06;;;10.26;55.47
46714;BME280;32445;51.376;10.874;2024-02-21T18:01:47;98886.41;;;10.22;55.62
46714;BME280;32445;51.376;10.874;2024-02-21T18:06:48;98886.50;;;10.19;55.77
46714;BME280;32445;51.376;10.874;2024-02-21T18:11:49;98889.00;;;9.97;55.87
46714;BME280;32445;51.376;10.874;2024-02-21T18:16:49;98890.19;;;9.87;55.91
46714;BME280;32445;51.376;10.874;2024-02-21T18:21:50;98863.78;;;9.76;56.26
46714;BME280;32445;51.376;10.874;2024-02-21T18:26:51;98866.38;;;9.76;56.10
46714;BME280;32445;51.376;10.874;2024-02-21T18:31:51;98861.88;;;9.81;56.31
46714;BME280;32445;51.376;10.874;2024-02-21T18:36:51;98840.41;;;9.77;55.94
46714;BME280;32445;51.376;10.874;2024-02-21T18:41:52;98832.94;;;9.68;55.93
46714;BME280;32445;51.376;10.874;2024-02-21T18:46:53;98831.44;;;9.61;55.97
46714;BME280;32445;51.376;10.874;2024-02-21T18:51:53;98831.28;;;9.65;56.15
46714;BME280;32445;51.376;10.874;2024-02-21T18:56:54;98830.28;;;9.69;55.93
46714;BME280;32445;51.376;10.874;2024-02-21T19:01:54;98814.84;;;9.66;55.80
46714;BME280;32445;51.376;10.874;2024-02-21T19:06:54;98810.56;;;9.65;55.89
46714;BME280;32445;51.376;10.874;2024-02-21T19:11:56;98788.22;;;9.63;56.05
46714;BME280;32445;51.376;10.874;2024-02-21T19:16:56;98786.78;;;9.79;55.84
46714;BME280;32445;51.376;10.874;2024-02-21T19:21:57;98781.31;;;9.87;55.75
46714;BME280;32445;51.376;10.874;2024-02-21T19:26:57;98785.38;;;9.94;55.49
46714;BME280;32445;51.376;10.874;2024-02-21T19:31:57;98769.75;;;9.97;55.21
46714;BME280;32445;51.376;10.874;2024-02-21T19:36:58;98756.84;;;9.96;55.37
46714;BME280;32445;51.376;10.874;2024-02-21T19:41:58;98745.13;;;9.84;55.57
46714;BME280;32445;51.376;10.874;2024-02-21T19:46:58;98737.75;;;9.73;55.73
46714;BME280;32445;51.376;10.874;2024-02-21T19:51:59;98729.28;;;9.68;55.81
46714;BME280;32445;51.376;10.874;2024-02-21T19:56:59;98714.63;;;9.67;55.98
46714;BME280;32445;51.376;10.874;2024-02-21T20:02:00;98712.13;;;9.64;55.97
46714;BME280;32445;51.376;10.874;2024-02-21T20:07:00;98714.66;;;9.65;55.99
46714;BME280;32445;51.376;10.874;2024-02-21T20:12:00;98701.09;;;9.59;55.89
46714;BME280;32445;51.376;10.874;2024-02-21T20:17:01;98693.91;;;9.42;56.18
46714;BME280;32445;51.376;10.874;2024-02-21T20:22:02;98680.91;;;9.43;56.09
46714;BME280;32445;51.376;10.874;2024-02-21T20:27:03;98679.22;;;9.42;55.86
46714;BME280;32445;51.376;10.874;2024-02-21T20:32:03;98681.16;;;9.35;55.64
46714;BME280;32445;51.376;10.874;2024-02-21T20:37:04;98683.59;;;9.40;55.85
46714;BME280;32445;51.376;10.874;2024-02-21T20:42:06;98661.34;;;9.34;55.77
46714;BME280;32445;51.376;10.874;2024-02-21T20:47:07;98654.38;;;9.37;56.14
46714;BME280;32445;51.376;10.874;2024-02-21T20:52:07;98635.19;;;9.42;56.04
46714;BME280;32445;51.376;10.874;2024-02-21T20:57:07;98619.53;;;9.45;55.84
46714;BME280;32445;51.376;10.874;2024-02-21T21:02:08;98626.16;;;9.52;55.88
46714;BME280;32445;51.376;10.874;2024-02-21T21:07:08;98615.75;;;9.54;55.58
46714;BME280;32445;51.376;10.874;2024-02-21T21:12:08;98622.91;;;9.47;55.68
46714;BME280;32445;51.376;10.874;2024-02-21T21:17:09;98610.75;;;9.49;55.70
46714;BME280;32445;51.376;10.874;2024-02-21T21:22:09;98597.84;;;9.48;55.15
46714;BME280;32445;51.376;10.874;2024-02-21T21:27:09;98589.25;;;9.47;55.28
46714;BME280;32445;51.376;10.874;2024-02-21T21:32:16;98579.06;;;9.43;54.80
46714;BME280;32445;51.376;10.874;2024-02-21T21:37:16;98554.22;;;9.37;54.58
46714;BME280;32445;51.376;10.874;2024-02-21T21:42:17;98535.09;;;9.40;54.64
46714;BME280;32445;51.376;10.874;2024-02-21T21:47:17;98520.31;;;9.43;54.51
46714;BME280;32445;51.376;10.874;2024-02-21T21:52:18;98499.13;;;9.56;54.76
46714;BME280;32445;51.376;10.874;2024-02-21T21:57:18;98486.72;;;9.64;54.50
46714;BME280;32445;51.376;10.874;2024-02-21T22:02:19;98481.91;;;9.55;54.73
46714;BME280;32445;51.376;10.874;2024-02-21T22:07:20;98473.03;;;9.60;54.59
46714;BME280;32445;51.376;10.874;2024-02-21T22:12:21;98469.22;;;9.47;52.44
46714;BME280;32445;51.376;10.874;2024-02-21T22:17:21;98464.97;;;9.46;53.26
46714;BME280;32445;51.376;10.874;2024-02-21T22:22:22;98445.81;;;9.50;53.56
46714;BME280;32445;51.376;10.874;2024-02-21T22:27:22;98444.88;;;9.51;53.67
46714;BME280;32445;51.376;10.874;2024-02-21T22:32:24;98432.06;;;9.48;54.04
46714;BME280;32445;51.376;10.874;2024-02-21T22:37:25;98421.16;;;9.40;53.49
46714;BME280;32445;51.376;10.874;2024-02-21T22:42:26;98411.78;;;9.37;54.00
46714;BME280;32445;51.376;10.874;2024-02-21T22:47:26;98390.94;;;9.40;54.47
46714;BME280;32445;51.376;10.874;2024-02-21T22:52:27;98373.31;;;9.26;54.06
46714;BME280;32445;51.376;10.874;2024-02-21T22:57:27;98365.44;;;9.29;54.62
46714;BME280;32445;51.376;10.874;2024-02-21T23:02:27;98349.72;;;9.34;54.83
46714;BME280;32445;51.376;10.874;2024-02-21T23:07:28;98344.66;;;9.31;54.89
46714;BME280;32445;51.376;10.874;2024-02-21T23:12:28;98327.19;;;9.36;54.96
46714;BME280;32445;51.376;10.874;2024-02-21T23:17:28;98317.44;;;9.43;54.85
46714;BME280;32445;51.376;10.874;2024-02-21T23:22:29;98314.25;;;9.36;55.08
46714;BME280;32445;51.376;10.874;2024-02-21T23:27:30;98313.66;;;9.29;55.01
46714;BME280;32445;51.376;10.874;2024-02-21T23:32:31;98298.78;;;9.34;55.08
46714;BME280;32445;51.376;10.874;2024-02-21T23:37:31;98291.38;;;9.25;55.33
46714;BME280;32445;51.376;10.874;2024-02-21T23:42:32;98279.09;;;9.30;55.11
46714;BME280;32445;51.376;10.874;2024-02-21T23:47:32;98267.03;;;9.29;55.30
46714;BME280;32445;51.376;10.874;2024-02-21T23:52:32;98244.63;;;9.28;55.45
46714;BME280;32445;51.376;10.874;2024-02-21T23:57:33;98236.75;;;9.31;55.49
